Omaha, NE (68175)

9:48 PM CDT on August 27, 2015 (GMT -0500)
Midtown Crossing area | | Change Station
CLOSE
Current Station
Personal Weather Station
Location: Omaha, NE
Elevation: 1161 ft
Nearby Weather Stations

Elev 1161 ft 41.26 °N, 95.96 °W | Updated 15 seconds ago

Mostly Cloudy
Mostly Cloudy
73.4 °F
Feels Like 71 °F
N
13.9
Wind Variable Wind from SE
Gusts 17.4 mph

Today
High -- | Low -- °F
--% Chance of Precip.
Yesterday
High -- | Low -- °F
Precip. -- in
6:45 AM 8:05 PM
Waxing Gibbous, 96% visible
Pressure 29.89 in
Visibility 10.0 miles
Clouds Few 12000 ft
Mostly Cloudy 15000 ft
Overcast 25000 ft
Heat Index 71 °F
Dew Point 71 °F
Humidity 92%
Rainfall in
Snow Depth Not available.
UV 0.0 out of 12
Pollen 7.50 out of 12
Air Quality Not available.
Flu Activity Not available.
METAR KOMA 280152Z 13015KT 10SM FEW120 BKN150 OVC250 24/19 A2991 RMK AO2 SLP121 T02390194
Pressure 29.89 in
Visibility 10.0 miles
Clouds Few 12000 ft
Mostly Cloudy 15000 ft
Overcast 25000 ft
Heat Index 71 °F
Dew Point 71 °F
Humidity 92%
Rainfall in
Snow Depth Not available.
UV 0.0 out of 12
Pollen 7.50 out of 12
Air Quality Not available.
Flu Activity Not available.
METAR KOMA 280152Z 13015KT 10SM FEW120 BKN150 OVC250 24/19 A2991 RMK AO2 SLP121 T02390194

10-Day Weather Forecast

×

Almanac

Astronomy

Aug. 27, 2015 Rise Set
Actual Time
Civil Twilight
Nautical Twilight
Astronomical Twilight
Moon
Length of Visible Light
Length of Day
Tomorrow will be .
, % of the Moon is Illuminated

Today's Extremes

State Highs State Lows

Community

WunderPhotos

Upload Photos

1,850,310 photos uploaded!

WunderBlogs® & News

Nearby

Air Quality

  Air Quality AQ Index Pollutant
Not available.

Snow Depth

Station Depth Elevation

Earthquake Activity

City Distance Mag. Time & Date
Minimum magnitude displayed is 2.5.

Coastal Water Temperatures

Place Temperature

Stations

Nearby Weather Stations

Station Location Temp. Windchill Dew Point Humidity Wind Precip. Elev Updated Type